Terminal Aerodrome Forecast
Issued by NWS Topeka, KS

Home | Current Version | Previous Version | Graphics & Text | Print | Product List | Glossary On
Versions: 1 2 3 4 5 6 7 8 9 10 11 12 13 14
000
FTUS43 KTOP 271514 AAB
TAFTOP
TAF AMD
KTOP 271514Z 2715/2812 10007KT 6SM -TSRA BKN060CB
      TEMPO 2715/2716 VRB15G20KT 4SM TSRA BR BKN035CB
     FM271700 12008KT P6SM VCTS SCT020 BKN035CB
     FM272300 35008KT P6SM BKN040
     FM280200 34009KT P6SM BKN025
     FM280900 32008KT P6SM SCT040=

USA.gov is the U.S. government's official web portal to all federal, state and local government web resources and services.